Time;durP1;ratioP1;P1;durP2;ratioP2;P2;SDS_P1;SDS_P2;PMS_P1;PMS_P2;Temp;Humidity;BMP_temperature;BMP_pressure;BME280_temperature;BME280_humidity;BME280_pressure;Samples;Min_cycle;Max_cycle;Signal;HPM_P1;HPM_P2
2022/12/04 00:25:36;;;;;;;12.93;11.27;;;;;;;14.44;67.18;102022.44;6310678;22;20073;-83
2022/12/04 00:58:37;;;;;;;13.82;11.20;;;;;;;14.46;66.52;102032.00;6315698;22;20031;-81
2022/12/04 01:04:49;;;;;;;13.45;10.80;;;;;;;14.48;66.09;102022.56;6242946;23;19911;-82
2022/12/04 01:07:43;;;;;;;12.55;11.23;;;;;;;14.50;66.34;102022.56;6112111;23;20006;-82
2022/12/04 01:10:28;;;;;;;12.27;11.00;;;;;;;14.48;66.27;102017.38;6128576;23;20033;-82
2022/12/04 01:16:48;;;;;;;12.07;10.77;;;;;;;14.50;66.02;102020.88;6153662;23;20070;-82
2022/12/04 01:19:26;;;;;;;12.15;10.85;;;;;;;14.48;66.37;102022.56;6129066;23;20001;-83
2022/12/04 01:25:37;;;;;;;12.45;11.15;;;;;;;14.49;65.46;102020.84;6153829;23;20029;-82
2022/12/04 01:28:36;;;;;;;12.48;11.18;;;;;;;14.49;66.44;102019.09;6118146;23;20019;-82
2022/12/04 01:31:50;;;;;;;14.15;11.05;;;;;;;14.50;66.64;102009.63;6108320;23;20117;-81
2022/12/04 01:38:29;;;;;;;11.75;10.52;;;;;;;14.51;66.01;102013.97;6156920;23;20047;-81
2022/12/04 01:41:38;;;;;;;11.95;10.65;;;;;;;14.51;65.78;102007.06;6121592;23;20010;-82
2022/12/04 01:44:42;;;;;;;12.73;11.35;;;;;;;14.52;65.61;102003.63;6041161;23;20020;-82
2022/12/04 02:15:06;;;;;;;12.25;11.00;;;;;;;14.55;64.98;101998.56;6242672;23;20049;-82
2022/12/04 02:18:07;;;;;;;15.85;11.98;;;;;;;14.54;64.76;101995.91;6181876;23;20036;-82
2022/12/04 02:21:32;;;;;;;14.25;11.38;;;;;;;14.52;64.51;101993.25;6152276;23;20010;-82
2022/12/04 02:31:31;;;;;;;13.32;10.48;;;;;;;14.54;65.37;101995.91;6095955;23;20092;-82
2022/12/04 02:38:00;;;;;;;12.40;10.75;;;;;;;14.54;65.29;102001.06;6096221;23;20034;-81
2022/12/04 02:44:21;;;;;;;12.38;10.77;;;;;;;14.53;64.64;101995.03;6095813;23;20070;-82
2022/12/04 03:07:36;;;;;;;13.20;11.48;;;;;;;14.56;64.23;101986.47;5982330;24;20061;-82
2022/12/04 03:27:03;;;;;;;13.93;11.80;;;;;;;14.57;64.49;101965.78;6275973;22;20027;-83
2022/12/04 03:36:58;;;;;;;12.70;11.40;;;;;;;14.55;63.98;101964.88;6268846;22;20046;-83
2022/12/04 03:43:44;;;;;;;12.38;11.07;;;;;;;14.56;64.47;101963.16;6184016;23;20032;-83
2022/12/04 03:50:11;;;;;;;13.18;11.18;;;;;;;14.57;64.04;101970.97;6184046;23;20052;-83
2022/12/04 03:53:41;;;;;;;12.73;11.32;;;;;;;14.57;63.25;101962.34;6134497;23;20009;-82
2022/12/04 03:56:26;;;;;;;13.13;11.18;;;;;;;14.56;63.49;101966.63;6161755;23;20028;-83
2022/12/04 04:00:08;;;;;;;12.30;10.98;;;;;;;14.58;64.05;101964.06;6126214;23;20045;-83
2022/12/04 04:06:32;;;;;;;12.45;10.73;;;;;;;14.57;63.68;101964.94;6124806;23;20049;-83
2022/12/04 04:26:16;;;;;;;13.02;11.38;;;;;;;14.58;63.19;101951.13;6242596;23;20064;-81
2022/12/04 04:28:43;;;;;;;12.80;11.32;;;;;;;14.56;63.62;101951.06;6216823;23;20005;-82
2022/12/04 04:32:03;;;;;;;12.77;11.40;;;;;;;14.58;63.01;101954.56;6242202;23;19992;-82
2022/12/04 04:35:08;;;;;;;13.05;11.40;;;;;;;14.58;63.28;101949.41;6181928;23;19997;-81
2022/12/04 04:38:11;;;;;;;13.15;11.70;;;;;;;14.58;63.56;101951.97;6182597;23;20037;-82
2022/12/04 04:41:44;;;;;;;12.18;10.77;;;;;;;14.56;63.05;101951.06;6249917;22;20025;-81
2022/12/04 04:54:41;;;;;;;12.45;11.15;;;;;;;14.56;63.02;101952.81;6305873;22;20018;-82
2022/12/04 05:04:17;;;;;;;13.93;11.32;;;;;;;14.56;62.99;101951.06;6273388;22;20071;-81
2022/12/04 05:10:25;;;;;;;11.93;10.73;;;;;;;14.56;62.91;101955.38;6273347;22;20011;-82
2022/12/04 05:16:21;;;;;;;12.77;11.43;;;;;;;14.57;62.47;101960.63;6272933;23;20019;-81
2022/12/04 05:25:15;;;;;;;13.27;11.75;;;;;;;14.56;62.54;101965.75;6273890;22;20687;-82
2022/12/04 05:28:09;;;;;;;12.80;11.45;;;;;;;14.57;63.06;101970.09;6252593;22;20008;-82
2022/12/04 05:30:48;;;;;;;12.40;11.10;;;;;;;14.57;62.38;101962.34;6301261;22;20047;-82
2022/12/04 05:36:35;;;;;;;12.55;11.25;;;;;;;14.58;62.55;101961.47;6273445;22;20027;-82
2022/12/04 05:39:32;;;;;;;13.38;11.98;;;;;;;14.59;63.10;101969.28;6222404;23;20031;-82
2022/12/04 05:42:15;;;;;;;12.85;11.05;;;;;;;14.57;62.58;101970.09;6207579;22;19988;-81
2022/12/04 05:44:51;;;;;;;12.88;11.20;;;;;;;14.57;62.50;101970.09;6247227;23;20062;-82
2022/12/04 05:48:08;;;;;;;12.57;11.02;;;;;;;14.57;62.50;101970.09;6222939;23;20035;-82
2022/12/04 05:51:29;;;;;;;12.95;11.35;;;;;;;14.58;62.89;101971.84;6152775;23;20022;-82
2022/12/04 05:53:58;;;;;;;13.05;11.75;;;;;;;14.56;62.29;101969.22;6128558;23;19998;-82
2022/12/04 05:56:44;;;;;;;12.95;11.52;;;;;;;14.58;62.45;101975.28;6152621;23;20021;-82
2022/12/04 05:59:37;;;;;;;13.02;11.63;;;;;;;14.56;62.33;101976.97;6129975;23;20026;-82
2022/12/04 06:02:49;;;;;;;12.55;11.25;;;;;;;14.57;62.80;101968.38;6122430;23;19994;-82
2022/12/04 06:05:53;;;;;;;12.23;10.95;;;;;;;14.57;62.37;101976.16;6081912;23;19990;-82
2022/12/04 06:15:24;;;;;;;12.50;11.20;;;;;;;14.56;62.55;101979.56;6155086;23;20033;-82
2022/12/04 06:17:59;;;;;;;12.57;11.15;;;;;;;14.56;62.55;101982.16;6107221;23;20010;-81
2022/12/04 06:20:52;;;;;;;12.35;11.15;;;;;;;14.55;62.78;101980.44;6124527;23;20014;-82
2022/12/04 06:26:48;;;;;;;12.90;11.02;;;;;;;14.58;62.28;101984.78;6063345;23;20064;-82
2022/12/04 06:29:17;;;;;;;12.70;11.40;;;;;;;14.56;62.49;101981.28;6066791;23;20006;-82
2022/12/04 06:32:06;;;;;;;13.57;12.13;;;;;;;14.57;62.00;101985.66;6067025;23;19998;-82
2022/12/04 06:34:34;;;;;;;14.70;11.93;;;;;;;14.54;62.53;101978.63;6034470;23;20036;-82
2022/12/04 06:37:22;;;;;;;13.10;11.73;;;;;;;14.57;62.21;101983.94;6038958;23;19988;-83
2022/12/04 06:40:21;;;;;;;13.63;11.25;;;;;;;14.56;61.83;101974.38;6061086;23;20085;-81
2022/12/04 06:46:26;;;;;;;14.52;12.98;;;;;;;14.55;62.13;101971.78;6040224;23;20026;-81
2022/12/04 06:52:12;;;;;;;13.40;12.00;;;;;;;14.57;62.26;101975.28;6038004;23;20059;-82
2022/12/04 07:11:48;;;;;;;13.70;11.80;;;;;;;14.59;61.30;101976.19;6178673;23;20021;-79
2022/12/04 07:14:14;;;;;;;13.10;11.80;;;;;;;14.62;61.61;101977.97;6175238;23;20516;-76
2022/12/04 07:16:41;;;;;;;12.48;11.18;;;;;;;14.62;61.28;101978.84;6160575;23;20014;-78
2022/12/04 07:22:32;;;;;;;15.52;11.57;;;;;;;14.67;61.85;101976.34;6179079;23;20024;-80
2022/12/04 07:24:57;;;;;;;17.33;12.20;;;;;;;14.66;61.91;101970.28;6172406;23;20017;-79
2022/12/04 07:27:23;;;;;;;19.63;11.95;;;;;;;14.66;61.78;101972.00;6152971;23;20029;-77
2022/12/04 07:29:51;;;;;;;18.33;11.57;;;;;;;14.68;61.91;101976.38;6155149;23;20061;-78
2022/12/04 07:32:17;;;;;;;14.40;11.13;;;;;;;14.69;61.55;101975.53;6202537;23;20047;-80
2022/12/04 07:34:43;;;;;;;12.27;10.98;;;;;;;14.70;61.84;101971.22;6202053;23;20008;-80
2022/12/04 07:37:08;;;;;;;12.95;11.43;;;;;;;14.74;61.90;101979.09;6228658;23;20534;-80
2022/12/04 07:39:33;;;;;;;15.82;11.80;;;;;;;14.73;62.04;101977.34;6198892;23;20020;-80
2022/12/04 07:41:59;;;;;;;13.85;11.68;;;;;;;14.74;62.01;101986.88;6200640;23;20008;-80
2022/12/04 07:44:24;;;;;;;13.23;10.80;;;;;;;14.76;61.94;101982.59;6202360;23;20036;-80
2022/12/04 07:46:50;;;;;;;14.45;10.48;;;;;;;14.76;61.63;101979.13;6202846;23;20031;-80
2022/12/04 07:49:15;;;;;;;14.13;10.43;;;;;;;14.78;61.78;101980.03;6228355;23;20031;-79
2022/12/04 07:51:42;;;;;;;12.68;10.73;;;;;;;14.79;61.89;101985.25;6228880;23;20016;-79
2022/12/04 07:54:08;;;;;;;12.55;10.35;;;;;;;14.79;62.23;101985.25;6261260;22;20022;-81
2022/12/04 07:56:33;;;;;;;13.55;11.27;;;;;;;14.81;61.74;101987.88;6287952;22;20000;-79
2022/12/04 07:59:36;;;;;;;15.55;10.45;;;;;;;14.82;61.99;101989.59;6296087;22;19998;-82
2022/12/04 08:02:05;;;;;;;11.50;10.23;;;;;;;14.85;61.56;101988.78;6292548;22;20474;-80
2022/12/04 08:04:31;;;;;;;11.75;10.52;;;;;;;14.86;61.90;101986.25;6266921;22;20008;-81
2022/12/04 08:06:57;;;;;;;14.07;10.52;;;;;;;14.86;61.34;101998.34;6288805;22;20011;-81
2022/12/04 08:12:48;;;;;;;10.68;9.55;;;;;;;14.91;61.25;101997.56;6301835;22;20041;-81
2022/12/04 08:15:13;;;;;;;11.65;10.05;;;;;;;14.93;61.47;101998.47;6294843;22;20003;-81
2022/12/04 08:17:51;;;;;;;15.30;10.18;;;;;;;14.94;61.20;101997.63;6287080;22;20022;-82
2022/12/04 08:20:17;;;;;;;11.02;9.70;;;;;;;14.94;61.45;102002.81;6289788;22;20000;-81
2022/12/04 08:22:44;;;;;;;13.88;10.02;;;;;;;14.95;61.35;102006.28;6290131;22;20014;-81
2022/12/04 08:25:10;;;;;;;11.23;10.02;;;;;;;14.96;61.07;102005.41;6293153;22;20024;-81
2022/12/04 08:27:37;;;;;;;12.45;10.35;;;;;;;14.97;61.16;102005.47;6291310;22;20007;-81
2022/12/04 08:30:28;;;;;;;10.73;9.30;;;;;;;14.97;60.96;102013.25;6292731;22;20085;-81
2022/12/04 08:33:24;;;;;;;12.90;9.93;;;;;;;14.96;60.86;102011.50;6203085;23;20004;-81
2022/12/04 08:35:57;;;;;;;12.75;10.15;;;;;;;14.95;61.04;102009.75;6205668;23;20031;-80
2022/12/04 08:38:33;;;;;;;11.52;10.13;;;;;;;14.93;60.93;102014.03;6179625;23;20053;-81
2022/12/04 08:41:26;;;;;;;11.77;10.20;;;;;;;14.92;61.48;102008.81;6117172;23;19994;-80
2022/12/04 08:44:08;;;;;;;;;;;;;;;14.95;61.00;102020.09;6115938;23;20017;-81
2022/12/04 08:46:37;;;;;;;11.13;9.82;;;;;;;14.96;61.34;102024.47;6109363;23;19921;-81
2022/12/04 08:49:09;;;;;;;10.63;9.50;;;;;;;14.95;60.87;102021.84;6091018;23;20022;-79
2022/12/04 08:51:36;;;;;;;13.33;11.30;;;;;;;15.04;62.29;102026.34;6059087;23;20050;-79
2022/12/04 08:57:39;;;;;;;14.05;10.57;;;;;;;15.11;61.79;102026.50;6253847;22;20078;-81
2022/12/04 09:03:49;;;;;;;14.30;10.10;;;;;;;15.13;61.18;102034.28;6274155;23;20011;-85
2022/12/04 09:06:16;;;;;;;14.77;10.35;;;;;;;15.12;61.38;102029.97;6273575;22;20420;-82
2022/12/04 09:09:19;;;;;;;12.05;9.52;;;;;;;15.13;61.31;102029.97;6247412;23;20052;-84
2022/12/04 09:12:00;;;;;;;11.77;10.43;;;;;;;15.10;61.46;102034.22;6273845;22;19996;-84
2022/12/04 09:14:46;;;;;;;20.08;10.23;;;;;;;15.10;61.05;102044.59;6267877;23;20012;-84
2022/12/04 09:23:30;;;;;;;11.75;9.88;;;;;;;15.01;61.22;102040.97;6251995;23;20042;-83
2022/12/04 09:26:02;;;;;;;11.45;10.23;;;;;;;15.01;61.21;102045.28;6246250;23;20008;-83
2022/12/04 09:28:41;;;;;;;11.65;10.45;;;;;;;15.01;61.18;102040.97;6246039;23;19996;-83
2022/12/04 09:31:29;;;;;;;12.52;10.85;;;;;;;15.00;61.15;102046.13;6246053;23;20019;-83
2022/12/04 09:33:57;;;;;;;11.88;10.57;;;;;;;15.00;60.82;102041.84;6241879;23;20031;-84
2022/12/04 10:13:12;;;;;;;12.32;10.68;;;;;;;15.08;61.24;102030.75;6297830;22;20008;-84
2022/12/04 10:29:46;;;;;;;12.07;10.50;;;;;;;15.02;61.03;102021.09;6304536;22;20018;-83
2022/12/04 10:32:33;;;;;;;12.98;10.48;;;;;;;15.01;60.80;102024.56;6260680;22;20012;-82
2022/12/04 10:39:23;;;;;;;11.70;10.50;;;;;;;15.10;61.36;102024.72;6298828;22;20050;-86
2022/12/04 10:42:10;;;;;;;12.63;10.85;;;;;;;15.10;60.69;102022.13;6252750;22;20373;-77
2022/12/04 10:44:35;;;;;;;11.32;9.88;;;;;;;15.09;60.87;102020.41;6279522;22;20043;-77
2022/12/04 10:47:04;;;;;;;11.63;10.18;;;;;;;15.11;60.08;102021.31;6227389;22;20345;-76
2022/12/04 10:49:33;;;;;;;11.13;9.70;;;;;;;15.15;60.62;102022.22;6247023;22;20010;-77
2022/12/04 10:51:58;;;;;;;11.02;9.88;;;;;;;15.18;60.07;102011.94;6248944;23;20384;-77
2022/12/04 10:54:34;;;;;;;10.85;9.75;;;;;;;15.20;60.14;102012.84;6197842;23;20079;-76
2022/12/04 10:57:02;;;;;;;11.13;9.95;;;;;;;15.20;60.14;102011.13;6249874;23;20023;-77
2022/12/04 10:59:51;;;;;;;11.30;9.93;;;;;;;15.22;59.89;102008.53;6256390;23;20000;-81
2022/12/04 11:02:25;;;;;;;10.30;9.20;;;;;;;15.24;60.00;102004.25;6230677;23;20004;-80
2022/12/04 11:05:31;;;;;;;10.60;9.07;;;;;;;15.25;60.23;102007.75;6234427;23;20000;-82
2022/12/04 11:08:00;;;;;;;10.55;9.45;;;;;;;15.23;60.26;101997.31;6255806;23;20004;-81
2022/12/04 11:10:40;;;;;;;12.27;10.02;;;;;;;15.22;60.10;101998.16;6261177;23;20004;-82
2022/12/04 11:13:17;;;;;;;11.55;9.98;;;;;;;15.20;60.37;101992.97;6263428;23;20008;-81
2022/12/04 11:24:30;;;;;;;9.95;8.95;;;;;;;15.15;60.40;101998.88;6232513;23;20016;-82
2022/12/04 11:26:56;;;;;;;;;;;;;;;15.15;60.25;101991.97;6235513;23;20020;-84
2022/12/04 11:35:18;;;;;;;14.13;9.25;;;;;;;15.10;60.73;101982.38;6315240;22;20018;-83
2022/12/04 11:38:04;;;;;;;11.70;9.23;;;;;;;15.10;60.70;101985.84;6333657;22;20011;-84
2022/12/04 11:44:10;;;;;;;10.45;9.20;;;;;;;15.08;60.68;101984.94;6335141;22;20108;-83
2022/12/04 11:46:36;;;;;;;10.50;9.20;;;;;;;15.07;60.98;101980.63;6309048;22;20007;-83
2022/12/04 11:49:02;;;;;;;10.15;9.00;;;;;;;15.07;61.13;101980.63;6307607;22;19979;-83
2022/12/04 11:55:34;;;;;;;10.60;8.90;;;;;;;15.07;61.09;101982.31;6336343;22;20006;-86
2022/12/04 12:15:09;;;;;;;11.10;9.02;;;;;;;15.08;60.50;101968.50;6332963;22;20023;-87
2022/12/04 12:18:16;;;;;;;10.30;8.38;;;;;;;15.07;60.45;101964.16;6304276;22;20030;-86
2022/12/04 12:21:19;;;;;;;11.87;9.00;;;;;;;15.09;60.90;101965.06;6278503;22;20003;-84
2022/12/04 12:24:39;;;;;;;13.98;9.32;;;;;;;15.08;60.76;101963.34;6274235;22;20222;-87
2022/12/04 12:31:01;;;;;;;10.18;8.43;;;;;;;15.09;60.22;101967.66;6306010;22;20018;-86
2022/12/04 12:33:38;;;;;;;13.65;8.65;;;;;;;15.15;60.29;101960.88;6250415;22;20044;-86
2022/12/04 12:36:37;;;;;;;11.60;8.45;;;;;;;15.15;60.68;101958.28;6301686;22;19999;-88
2022/12/04 13:09:41;;;;;;;10.15;8.27;;;;;;;15.09;60.30;101941.72;6262478;22;20023;-86
2022/12/04 13:12:15;;;;;;;10.02;8.13;;;;;;;15.07;60.18;101940.81;6298227;22;20008;-86
2022/12/04 13:18:31;;;;;;;9.65;7.90;;;;;;;15.06;60.07;101939.09;6300637;22;20466;-85
2022/12/04 13:24:59;;;;;;;8.20;7.40;;;;;;;15.06;60.29;101933.91;6302295;22;20006;-86
2022/12/04 13:31:29;;;;;;;9.15;7.57;;;;;;;15.05;59.96;101932.16;6301050;22;20340;-85
2022/12/04 13:40:35;;;;;;;9.82;8.32;;;;;;;15.08;60.30;101933.09;6274781;22;20027;-85
2022/12/04 13:43:35;;;;;;;9.93;7.47;;;;;;;15.12;59.85;101924.53;6293245;22;20014;-84
2022/12/04 13:49:28;;;;;;;8.55;6.90;;;;;;;15.23;59.19;101930.78;6209327;23;20061;-86
2022/12/04 13:52:16;;;;;;;;;;;;;;;15.26;59.10;101942.91;6185110;23;20017;-86
2022/12/04 13:55:37;;;;;;;11.68;7.32;;;;;;;15.23;59.28;101925.59;6179292;23;19924;-84
2022/12/04 14:01:39;;;;;;;13.60;7.10;;;;;;;15.18;60.79;101928.97;6180025;23;20053;-86
2022/12/04 14:04:06;;;;;;;9.43;7.47;;;;;;;15.19;60.29;101922.91;6179272;23;20021;-82
2022/12/04 14:07:12;;;;;;;8.82;7.18;;;;;;;15.17;60.07;101927.19;6177839;23;20005;-83
2022/12/04 14:10:26;;;;;;;16.33;7.20;;;;;;;15.14;59.71;101915.06;6156020;23;19998;-84
2022/12/04 14:13:27;;;;;;;11.10;7.10;;;;;;;15.12;59.73;101913.28;6180323;23;20021;-86
2022/12/04 14:16:47;;;;;;;12.95;7.35;;;;;;;15.11;59.96;101912.41;6089773;23;20027;-86
2022/12/04 14:19:40;;;;;;;10.45;7.25;;;;;;;15.10;60.26;101907.19;6101282;23;20030;-84
2022/12/04 14:22:59;;;;;;;9.05;7.55;;;;;;;15.08;60.17;101906.28;6093976;23;20022;-87
2022/12/04 14:26:04;;;;;;;10.57;7.10;;;;;;;15.11;59.90;101899.47;6117703;23;20018;-87
2022/12/04 14:32:29;;;;;;;10.27;6.88;;;;;;;15.19;59.89;101908.22;6087138;23;20022;-85
2022/12/04 14:34:56;;;;;;;10.10;7.05;;;;;;;15.20;59.70;101914.31;6091108;23;20007;-84
2022/12/04 14:37:48;;;;;;;9.50;6.95;;;;;;;15.22;60.01;101909.97;6068575;23;20050;-87
2022/12/04 14:40:57;;;;;;;8.52;7.10;;;;;;;15.27;59.50;101913.56;6123143;23;20037;-86
2022/12/04 14:44:04;;;;;;;13.93;7.05;;;;;;;15.27;59.67;101915.28;6123752;23;20054;-85
2022/12/04 14:46:46;;;;;;;10.63;7.38;;;;;;;15.23;59.51;101909.16;6115867;23;20003;-80
2022/12/04 14:52:54;;;;;;;9.55;7.03;;;;;;;15.24;60.09;101913.47;6106185;23;20015;-77
2022/12/04 14:55:56;;;;;;;9.90;7.38;;;;;;;15.23;60.00;101923.00;6087037;23;20010;-77
2022/12/04 14:58:28;;;;;;;9.40;7.15;;;;;;;15.21;60.12;101918.63;6074502;23;20384;-77
2022/12/04 15:00:56;;;;;;;11.50;7.32;;;;;;;15.20;59.92;101925.53;6075675;23;20089;-77
2022/12/04 15:03:22;;;;;;;8.57;7.40;;;;;;;15.20;60.30;101932.47;6097996;23;20420;-77
2022/12/04 15:05:50;;;;;;;9.55;6.72;;;;;;;15.19;60.49;101928.97;6099022;23;20010;-78
2022/12/04 15:08:15;;;;;;;8.52;7.30;;;;;;;15.17;60.29;101929.78;6096501;23;20009;-77
2022/12/04 15:13:36;;;;;;;11.00;7.32;;;;;;;15.17;60.45;101932.38;6098672;23;20071;-78
2022/12/04 15:16:19;;;;;;;9.93;7.32;;;;;;;15.17;60.54;101924.59;6078346;23;20211;-77
2022/12/04 15:19:17;;;;;;;11.77;7.50;;;;;;;15.17;60.37;101927.19;6126247;23;20006;-76
2022/12/04 15:21:43;;;;;;;9.27;7.65;;;;;;;15.17;60.54;101922.00;6085758;23;20062;-77
2022/12/04 15:24:18;;;;;;;10.52;7.85;;;;;;;15.16;60.76;101928.91;6101762;23;20010;-78
2022/12/04 15:26:45;;;;;;;8.65;7.22;;;;;;;15.16;60.59;101941.03;6126517;23;19998;-77
2022/12/04 15:29:17;;;;;;;9.77;7.60;;;;;;;15.17;60.47;101937.56;6081729;23;20105;-80
2022/12/04 15:31:48;;;;;;;10.07;7.68;;;;;;;15.16;60.52;101931.50;6206026;23;20008;-80
2022/12/04 15:34:18;;;;;;;10.25;8.40;;;;;;;15.17;60.40;101930.66;6223408;23;20008;-80
2022/12/04 15:36:56;;;;;;;9.00;7.43;;;;;;;15.19;60.27;101938.47;6248944;23;20058;-80
2022/12/04 15:39:25;;;;;;;11.13;7.47;;;;;;;15.19;60.46;101928.97;6247812;22;20000;-80
2022/12/04 15:41:51;;;;;;;10.30;7.60;;;;;;;15.23;60.15;101929.91;6248532;23;20042;-80
2022/12/04 15:44:29;;;;;;;9.93;8.30;;;;;;;15.25;60.26;101930.81;6197815;23;20340;-80
2022/12/04 15:46:57;;;;;;;9.30;7.75;;;;;;;15.29;60.22;101931.75;6223251;23;20004;-80
2022/12/04 15:49:32;;;;;;;9.38;7.22;;;;;;;15.30;60.01;101936.06;6247747;23;20019;-80
2022/12/04 15:52:17;;;;;;;9.25;7.20;;;;;;;15.30;60.08;101931.75;6231428;23;20328;-81
2022/12/04 15:54:52;;;;;;;9.27;7.70;;;;;;;15.31;60.20;101935.22;6259954;23;20007;-80
2022/12/04 15:57:23;;;;;;;8.25;7.38;;;;;;;15.31;60.12;101940.41;6233492;23;20421;-80
2022/12/04 15:59:50;;;;;;;8.80;7.53;;;;;;;15.28;60.23;101940.34;6227386;23;20007;-80
2022/12/04 16:02:30;;;;;;;9.85;7.45;;;;;;;15.25;60.28;101936.00;6225185;23;20043;-80
2022/12/04 16:04:56;;;;;;;8.07;7.28;;;;;;;15.24;60.16;101934.22;6251308;23;20101;-80
2022/12/04 16:07:24;;;;;;;10.45;8.25;;;;;;;15.23;60.74;101941.13;6199223;23;20433;-81
2022/12/04 16:09:53;;;;;;;10.27;7.72;;;;;;;15.23;60.60;101938.53;6224518;23;20019;-80
2022/12/04 16:12:24;;;;;;;9.02;7.60;;;;;;;15.22;60.14;101933.31;6226187;23;20083;-81
2022/12/04 16:14:52;;;;;;;8.82;7.63;;;;;;;15.23;60.45;101937.69;6254237;23;20007;-80
2022/12/04 16:17:17;;;;;;;11.15;7.78;;;;;;;15.21;60.37;101939.38;6223969;23;20004;-80
2022/12/04 16:19:43;;;;;;;8.82;7.63;;;;;;;15.21;60.34;101939.38;6225123;23;20000;-81
2022/12/04 16:22:15;;;;;;;8.15;7.35;;;;;;;15.20;60.58;101948.88;6223407;23;20014;-80
2022/12/04 16:24:40;;;;;;;7.85;7.05;;;;;;;15.20;60.31;101951.47;6222899;23;20070;-80
2022/12/04 16:27:16;;;;;;;8.82;7.78;;;;;;;15.20;60.15;101951.47;6198832;23;20000;-80
2022/12/04 16:29:41;;;;;;;9.40;7.60;;;;;;;15.19;60.46;101954.88;6250376;23;20011;-80
2022/12/04 16:32:11;;;;;;;8.73;7.65;;;;;;;15.20;60.32;101958.38;6198838;23;20012;-81
2022/12/04 16:34:36;;;;;;;9.95;7.80;;;;;;;15.19;60.20;101957.47;6249028;23;20004;-80
2022/12/04 16:37:12;;;;;;;9.05;7.65;;;;;;;15.19;60.40;101961.81;6198202;23;20023;-80
2022/12/04 16:39:38;;;;;;;9.70;7.50;;;;;;;15.19;60.91;101961.81;6223158;23;20007;-80
2022/12/04 16:42:03;;;;;;;8.85;7.57;;;;;;;15.19;60.41;101964.41;6197557;23;20039;-80
2022/12/04 16:44:29;;;;;;;8.82;7.57;;;;;;;15.22;60.08;101954.97;6201790;23;20032;-78
2022/12/04 16:46:54;;;;;;;9.20;7.47;;;;;;;15.24;60.23;101960.16;6209942;23;20028;-82
2022/12/04 16:49:19;;;;;;;8.55;7.43;;;;;;;15.29;59.96;101963.72;6237443;23;20008;-80
2022/12/04 16:51:48;;;;;;;9.68;7.50;;;;;;;15.28;59.85;101967.16;6212184;23;20004;-79
2022/12/04 16:54:14;;;;;;;8.38;7.47;;;;;;;15.31;59.86;101968.91;6213121;23;20012;-79
2022/12/04 16:56:40;;;;;;;8.00;6.95;;;;;;;15.33;59.94;101968.13;6235907;23;20004;-79
2022/12/04 16:59:05;;;;;;;8.15;7.18;;;;;;;15.34;59.66;101972.44;6211055;23;20012;-81
2022/12/04 17:01:39;;;;;;;7.20;6.47;;;;;;;15.34;59.96;101961.22;6234501;23;20425;-82
2022/12/04 17:04:04;;;;;;;7.75;6.85;;;;;;;15.34;59.81;101964.66;6261588;23;20004;-79
2022/12/04 17:06:32;;;;;;;7.78;6.72;;;;;;;15.30;59.79;101968.06;6235044;23;20004;-81
2022/12/04 17:08:58;;;;;;;7.78;6.97;;;;;;;15.30;59.97;101967.19;6191510;23;20008;-79
2022/12/04 17:11:23;;;;;;;7.82;7.03;;;;;;;15.29;60.21;101971.50;6186026;23;20091;-79
2022/12/04 17:13:48;;;;;;;8.07;7.25;;;;;;;15.29;59.96;101981.00;6187097;23;20035;-80
2022/12/04 17:16:15;;;;;;;8.18;7.30;;;;;;;15.27;59.99;101978.38;6209761;23;20028;-79
2022/12/04 17:18:41;;;;;;;8.27;7.40;;;;;;;15.27;60.02;101975.78;6209484;23;20026;-79
2022/12/04 17:21:08;;;;;;;7.32;6.32;;;;;;;15.26;59.98;101970.56;6209438;23;20004;-79
2022/12/04 17:23:33;;;;;;;7.90;7.10;;;;;;;15.27;59.97;101969.75;6207362;23;20012;-81
2022/12/04 17:26:04;;;;;;;9.10;7.47;;;;;;;15.26;60.18;101973.16;6229616;23;20007;-79
2022/12/04 17:28:30;;;;;;;8.02;7.20;;;;;;;15.27;59.96;101964.56;6232998;23;20337;-80
2022/12/04 17:30:56;;;;;;;8.18;6.97;;;;;;;15.26;59.92;101966.25;6204244;23;20008;-81
2022/12/04 17:33:21;;;;;;;7.70;6.90;;;;;;;15.28;60.25;101967.16;6229971;23;20329;-79
2022/12/04 17:35:46;;;;;;;9.18;7.03;;;;;;;15.32;60.10;101960.31;6208696;23;20004;-80
2022/12/04 17:38:12;;;;;;;8.25;6.57;;;;;;;15.32;59.72;101966.38;6178025;23;20000;-80
2022/12/04 17:40:55;;;;;;;;;;;;;;;;;;;;;
2022/12/04 17:43:33;;;;;;;;;;;;;;;;;;;;;
2022/12/04 17:46:02;;;;;;;8.45;7.05;;;;;;;15.38;59.80;101963.88;6254474;23;20255;-80
2022/12/04 17:48:28;;;;;;;7.85;6.60;;;;;;;15.39;59.66;101959.56;6252773;23;20007;-80
2022/12/04 17:51:24;;;;;;;7.38;6.65;;;;;;;15.40;59.62;101961.31;6227844;23;20004;-80
2022/12/04 17:53:50;;;;;;;8.57;7.00;;;;;;;15.40;59.44;101964.78;6234915;22;20015;-80
2022/12/04 17:56:19;;;;;;;7.65;6.57;;;;;;;15.38;59.48;101963.03;6277242;22;20011;-80
2022/12/04 17:58:45;;;;;;;8.75;6.85;;;;;;;15.37;59.92;101971.63;6251990;23;20429;-80
2022/12/04 18:01:17;;;;;;;7.97;6.70;;;;;;;15.35;59.93;101974.22;6224143;23;20019;-78
2022/12/04 18:03:43;;;;;;;7.22;6.47;;;;;;;15.35;59.95;101975.91;6250663;22;20038;-78
2022/12/04 18:06:20;;;;;;;7.65;6.85;;;;;;;15.35;59.88;101963.84;6251195;23;20003;-78
2022/12/04 18:08:46;;;;;;;6.78;6.07;;;;;;;15.34;59.83;101964.66;6257601;22;20008;-80
2022/12/04 18:11:13;;;;;;;9.30;6.45;;;;;;;15.34;60.08;101969.88;6252639;23;20004;-78
2022/12/04 18:13:38;;;;;;;7.95;6.90;;;;;;;15.35;59.98;101968.13;6227233;23;20008;-79
2022/12/04 18:16:06;;;;;;;7.55;6.60;;;;;;;15.35;59.99;101969.03;6251446;23;20016;-78
2022/12/04 18:18:34;;;;;;;7.82;7.00;;;;;;;15.34;60.23;101962.09;6251415;23;20011;-80
2022/12/04 18:21:05;;;;;;;8.32;6.43;;;;;;;15.34;59.88;101963.81;6250670;23;20031;-80
2022/12/04 18:23:31;;;;;;;9.98;6.72;;;;;;;15.39;60.12;101962.16;6250609;23;20000;-79
2022/12/04 18:25:58;;;;;;;9.70;6.32;;;;;;;15.40;59.83;101969.09;6250357;23;20004;-79
2022/12/04 18:28:50;;;;;;;7.80;6.10;;;;;;;15.43;60.32;101964.81;6252475;23;20075;-79
2022/12/04 18:31:17;;;;;;;7.88;6.65;;;;;;;15.45;60.18;101962.28;6196648;23;20016;-79
2022/12/04 18:33:44;;;;;;;7.30;6.07;;;;;;;15.47;60.58;101970.94;6219515;23;20004;-79
2022/12/04 18:36:17;;;;;;;7.28;6.50;;;;;;;15.50;60.51;101971.00;6220235;23;20004;-80
2022/12/04 18:38:42;;;;;;;6.85;6.13;;;;;;;15.51;60.30;101972.75;6195648;23;20012;-78
2022/12/04 18:41:10;;;;;;;7.68;6.35;;;;;;;15.52;60.44;101977.09;6193186;23;20021;-78
2022/12/04 18:43:38;;;;;;;7.88;6.25;;;;;;;15.52;60.55;101973.63;6221115;23;20004;-78
2022/12/04 18:46:06;;;;;;;6.80;6.10;;;;;;;15.51;61.03;101977.94;6229808;23;20011;-79
2022/12/04 18:48:32;;;;;;;8.15;6.30;;;;;;;15.52;60.61;101978.81;6230873;23;20533;-79
2022/12/04 18:50:58;;;;;;;7.03;6.32;;;;;;;15.51;60.82;101977.94;6224350;23;20135;-79
2022/12/04 18:53:24;;;;;;;6.88;6.18;;;;;;;15.51;60.70;101984.88;6196695;23;20008;-79
2022/12/04 18:55:50;;;;;;;8.55;6.10;;;;;;;15.50;60.67;101983.97;6220232;23;20036;-78
2022/12/04 18:58:16;;;;;;;8.13;6.45;;;;;;;15.51;60.59;101990.06;6169266;23;20365;-77
2022/12/04 19:00:42;;;;;;;6.93;6.10;;;;;;;15.51;60.76;101996.09;6219060;23;20059;-78
2022/12/04 19:03:07;;;;;;;8.32;6.38;;;;;;;15.51;60.84;101997.84;6268934;22;20004;-77
2022/12/04 19:05:33;;;;;;;7.63;6.10;;;;;;;15.52;60.99;102004.75;6249155;23;20008;-77
2022/12/04 19:07:58;;;;;;;6.80;6.03;;;;;;;15.51;60.60;102006.47;6250284;23;20012;-77
2022/12/04 19:10:25;;;;;;;6.93;5.95;;;;;;;15.50;60.99;102001.25;6249937;23;20058;-77
2022/12/04 19:12:51;;;;;;;8.88;6.40;;;;;;;15.49;61.07;102003.00;6250329;23;20012;-80
2022/12/04 19:15:19;;;;;;;7.90;6.40;;;;;;;15.43;62.62;102002.88;6252561;22;20075;-80
2022/12/04 19:17:45;;;;;;;8.43;6.78;;;;;;;15.34;62.49;102003.56;6250969;23;20001;-78
2022/12/04 19:20:11;;;;;;;7.85;6.88;;;;;;;15.31;62.41;102010.41;6250295;23;20008;-77
2022/12/04 19:22:37;;;;;;;7.63;6.82;;;;;;;15.29;61.70;102010.41;6224950;23;20000;-79